NCAR-RAP Real-Time Weather Data

Output produced by METARs form (08 May 2021  02:04 UTC)
found at http://weather.rap.ucar.edu/surface/
 
KBMG 080053Z VRB04KT 10SM OVC095 15/06 A2994 RMK AO2 SLP137 T01500056
KBMG 072353Z 24006KT 10SM BKN110 16/07 A2992 RMK AO2 SLP131 60000 T01560067 10194 20139 56013
KBMG 072253Z 26009KT 10SM CLR 17/06 A2993 RMK AO2 RAE2157 SLP134 P0000 T01720056
KBMG 072153Z 23012G21KT 10SM -RA FEW022 SCT075 BKN090 16/06 A2994 RMK AO2 RAB48 SLP139 P0000 T01610056
KBMG 072053Z 24010KT 10SM FEW050 SCT060 BKN075 16/07 A2996 RMK AO2 PK WND 23032/2029 LTG DSNT NE RAB26E52 SLP144 P0000 60000 T01610067 56022
KBMG 071953Z 24010G23KT 210V290 10SM BKN080 BKN095 18/02 A2996 RMK AO2 PK WND 23026/1916 SLP145 T01830017
KBMG 071853Z 25008G23KT 10SM FEW075 19/01 A2999 RMK AO2 SLP153 T01890011
KBMG 071753Z 28011G20KT 10SM FEW085 FEW110 18/01 A3002 RMK AO2 SLP166 T01780011 10178 20056 58013
KBMG 071653Z 27010G16KT 230V290 10SM FEW100 17/02 A3005 RMK AO2 SLP174 T01720017
KBMG 071553Z VRB06G18KT 10SM CLR 16/01 A3006 RMK AO2 SLP178 T01610006
KBMG 071453Z VRB06KT 10SM CLR 14/03 A3006 RMK AO2 SLP179 T01390033 58001
KBMG 071353Z 23010KT 10SM CLR 12/02 A3007 RMK AO2 SLP182 T01170017
KBMG 071253Z 23004KT 10SM CLR 09/04 A3007 RMK AO2 SLP181 T00890039
KBMG 071153Z 00000KT 7SM CLR 06/04 A3006 RMK AO2 SLP183 70001 T00560039 10067 20033 53009
KBMG 071053Z 00000KT 7SM FEW085 03/02 A3005 RMK AO2 SLP175 T00330022